Strathdon, United Kingdom
Current Conditions -  °F | °C
As of 7:50 PM on Thursday 18 Dec 2014 (Local Time) from EGPD Reporting Station
Scattered Clouds Scattered Clouds  
Wind Chill: 35°   Ceiling: Unl
Heat Index: 41°   Visibility: 6mi
Dew Point: 34°   Wind: 9mph
Humidity: 76%   Direction: 270°W
Pressure: 29.32"   Gusts: NA
Location:  57.2°N, 3.03°W
Report Text: EGPD 181950Z 27008KT 9999 SCT042 05/01 Q0993 NOSIG
Loading
Personal Weather Stations






























Interactive Weather Map New forecast layout! Learn more

10-Day Weather Forecast

Advertisements
Track Severe Weather on mobile